Time;durP1;ratioP1;P1;durP2;ratioP2;P2;SDS_P1;SDS_P2;PMS_P1;PMS_P2;Temp;Humidity;BMP_temperature;BMP_pressure;BME280_temperature;BME280_humidity;BME280_pressure;Samples;Min_cycle;Max_cycle;Signal;HPM_P1;HPM_P2
2022/03/20 00:05:13;;;;;;;11.57;6.68;;;10.40;71.80;;;;;;10942548;32;20284;-71
2022/03/20 00:11:15;;;;;;;13.40;8.20;;;10.30;71.80;;;;;;10942343;32;20411;-72
2022/03/20 00:17:17;;;;;;;14.10;9.80;;;10.30;71.90;;;;;;10942240;32;20391;-71
2022/03/20 00:23:19;;;;;;;9.02;5.68;;;10.30;72.10;;;;;;10942048;32;20042;-71
2022/03/20 00:29:21;;;;;;;8.00;5.45;;;10.20;72.20;;;;;;10928554;32;20015;-71
2022/03/20 00:35:23;;;;;;;11.18;6.12;;;10.20;72.50;;;;;;10928413;32;20035;-71
2022/03/20 00:41:59;;;;;;;10.32;5.50;;;10.20;72.50;;;;;;10928621;32;20320;-71
2022/03/20 00:48:01;;;;;;;12.77;7.93;;;10.20;72.50;;;;;;10941603;32;20028;-71
2022/03/20 00:54:03;;;;;;;10.68;6.97;;;10.20;72.30;;;;;;10941732;32;20011;-71
2022/03/20 01:00:20;;;;;;;16.98;9.10;;;10.10;72.40;;;;;;10941360;32;20392;-71
2022/03/20 01:06:22;;;;;;;11.65;8.63;;;10.10;72.30;;;;;;10941181;32;20019;-72
2022/03/20 01:12:24;;;;;;;14.05;10.05;;;10.00;72.60;;;;;;10923497;32;20031;-72
2022/03/20 01:18:26;;;;;;;13.77;8.60;;;9.90;72.30;;;;;;10940827;32;20019;-71
2022/03/20 01:24:29;;;;;;;14.48;10.07;;;9.90;71.70;;;;;;10943671;32;20035;-71
2022/03/20 01:30:42;;;;;;;17.73;10.07;;;9.80;72.10;;;;;;10947691;32;20023;-71
2022/03/20 01:36:44;;;;;;;11.23;8.05;;;9.80;72.30;;;;;;10949656;32;20015;-71
2022/03/20 01:42:48;;;;;;;12.77;9.27;;;9.80;72.40;;;;;;10947620;32;20018;-71
2022/03/20 01:48:50;;;;;;;13.07;8.52;;;9.80;72.50;;;;;;10947224;32;20023;-71
2022/03/20 01:54:53;;;;;;;11.25;7.70;;;9.80;72.50;;;;;;10947066;32;20019;-71
2022/03/20 02:00:55;;;;;;;10.50;6.15;;;9.80;72.50;;;;;;10946673;32;20026;-71
2022/03/20 02:06:59;;;;;;;10.93;6.75;;;9.70;72.70;;;;;;10946521;32;20172;-71
2022/03/20 02:13:03;;;;;;;9.68;6.28;;;9.60;72.70;;;;;;10946168;32;20061;-71
2022/03/20 02:19:12;;;;;;;13.75;8.55;;;9.60;73.00;;;;;;10946369;32;20015;-71
2022/03/20 02:25:16;;;;;;;14.32;9.43;;;9.60;73.10;;;;;;10946122;32;20023;-71
2022/03/20 02:31:18;;;;;;;11.00;6.55;;;9.50;73.10;;;;;;10944977;32;20030;-71
2022/03/20 02:37:23;;;;;;;9.63;6.05;;;9.50;73.00;;;;;;10945527;32;20022;-71
2022/03/20 02:43:29;;;;;;;14.18;7.10;;;9.40;73.20;;;;;;10945353;32;20031;-71
2022/03/20 02:49:32;;;;;;;10.27;6.10;;;9.40;73.20;;;;;;10945043;32;20035;-72
2022/03/20 02:55:38;;;;;;;6.47;4.35;;;9.30;73.30;;;;;;10945094;32;20023;-71
2022/03/20 03:01:40;;;;;;;15.57;9.43;;;9.30;73.70;;;;;;10931465;32;20015;-71
2022/03/20 03:15:19;;;;;;;16.70;10.20;;;9.20;73.70;;;;;;10944137;32;20027;-71
2022/03/20 03:20:27;;;;;;;16.90;11.32;;;9.20;73.50;;;;;;10944012;32;20019;-72
2022/03/20 03:26:30;;;;;;;13.88;9.93;;;9.10;74.20;;;;;;10943686;32;20049;-71
2022/03/20 03:32:32;;;;;;;13.48;8.55;;;9.00;74.10;;;;;;10943472;32;20027;-71
2022/03/20 03:38:43;;;;;;;8.27;5.68;;;9.10;74.00;;;;;;10943449;32;20027;-71
2022/03/20 03:44:45;;;;;;;12.75;8.85;;;9.20;73.90;;;;;;10926240;32;20014;-71
2022/03/20 03:50:51;;;;;;;11.57;8.07;;;9.10;73.70;;;;;;10942807;32;20096;-71
2022/03/20 03:56:53;;;;;;;11.85;7.00;;;8.90;74.50;;;;;;10942723;32;20022;-71
2022/03/20 04:02:55;;;;;;;11.57;7.45;;;9.00;74.70;;;;;;10942769;32;20053;-71
2022/03/20 04:09:07;;;;;;;10.18;5.43;;;9.00;74.80;;;;;;10942533;32;20031;-71
2022/03/20 04:15:14;;;;;;;9.95;5.60;;;9.00;74.80;;;;;;10938115;32;20027;-71
2022/03/20 04:21:17;;;;;;;11.05;5.90;;;9.00;74.90;;;;;;10942279;32;20019;-71
2022/03/20 04:27:19;;;;;;;10.52;7.28;;;8.90;75.00;;;;;;10942218;32;20054;-71
2022/03/20 04:33:25;;;;;;;13.60;8.30;;;8.80;75.20;;;;;;10928936;32;20014;-71
2022/03/20 04:39:27;;;;;;;14.55;9.57;;;8.80;75.10;;;;;;10941957;32;20053;-71
2022/03/20 04:45:29;;;;;;;14.05;9.27;;;8.80;74.90;;;;;;10941814;32;20020;-71
2022/03/20 05:04:14;;;;;;;16.77;13.25;;;8.70;75.50;;;;;;10948685;32;20031;-72
2022/03/20 05:16:36;;;;;;;13.15;8.88;;;8.60;75.20;;;;;;10948272;32;20316;-71
2022/03/20 05:22:39;;;;;;;11.10;6.87;;;8.50;75.60;;;;;;10948073;32;20026;-71
2022/03/20 05:28:41;;;;;;;12.73;8.20;;;8.60;75.60;;;;;;10947962;32;20022;-71
2022/03/20 05:35:04;;;;;;;11.95;8.40;;;8.60;75.40;;;;;;10946587;32;20429;-72
2022/03/20 05:47:28;;;;;;;12.80;7.80;;;8.70;75.60;;;;;;10943053;32;20019;-72
2022/03/20 05:53:30;;;;;;;8.63;5.57;;;8.70;75.80;;;;;;10946756;32;20053;-72
2022/03/20 05:59:35;;;;;;;13.10;9.02;;;8.70;75.80;;;;;;10933381;32;20015;-71
2022/03/20 06:05:38;;;;;;;9.85;6.97;;;8.70;76.00;;;;;;10946405;32;20081;-72
2022/03/20 06:11:41;;;;;;;16.25;11.12;;;8.70;76.10;;;;;;10946007;32;20046;-72
2022/03/20 06:17:45;;;;;;;17.27;12.25;;;8.80;75.70;;;;;;10946020;32;20045;-72
2022/03/20 06:23:47;;;;;;;19.73;13.50;;;8.70;75.80;;;;;;10943664;32;20046;-72
2022/03/20 06:29:49;;;;;;;16.12;10.98;;;8.80;74.40;;;;;;10932155;32;20476;-72
2022/03/20 06:35:53;;;;;;;12.18;8.93;;;8.80;75.10;;;;;;10945269;32;20041;-71
2022/03/20 06:41:55;;;;;;;12.75;8.18;;;8.90;75.30;;;;;;10944967;32;20305;-72
2022/03/20 06:47:59;;;;;;;21.23;16.35;;;9.00;75.60;;;;;;10944779;32;20059;-73
2022/03/20 06:54:01;;;;;;;21.05;14.85;;;9.00;75.70;;;;;;10944514;32;20026;-72
2022/03/20 07:00:05;;;;;;;16.80;11.82;;;9.00;74.10;;;;;;10944305;32;20045;-72
2022/03/20 07:06:10;;;;;;;17.90;11.85;;;9.10;74.10;;;;;;10943503;32;20034;-72
2022/03/20 07:12:25;;;;;;;26.12;19.20;;;9.20;74.60;;;;;;10930241;32;20031;-73
2022/03/20 07:18:54;;;;;;;30.60;16.95;;;9.20;73.10;;;;;;10946935;27;20069;-73
2022/03/20 07:29:29;;;;;;;16.75;12.25;;;9.30;73.20;;;;;;10943520;32;20027;-72
2022/03/20 07:31:20;;;;;;;17.92;11.00;;;9.30;72.40;;;;;;10943296;32;20045;-72
2022/03/20 07:37:22;;;;;;;31.58;17.33;;;9.50;72.90;;;;;;10929505;32;20035;-72
2022/03/20 07:43:28;;;;;;;19.75;15.18;;;9.60;72.10;;;;;;10942763;32;20038;-72
2022/03/20 07:49:30;;;;;;;22.98;13.35;;;9.70;72.00;;;;;;10942676;32;20039;-73
2022/03/20 07:55:32;;;;;;;18.92;14.30;;;9.70;70.50;;;;;;10940378;32;20022;-71
2022/03/20 08:01:34;;;;;;;21.50;12.27;;;9.80;68.10;;;;;;10942196;32;20031;-72
2022/03/20 08:08:03;;;;;;;16.42;12.20;;;9.90;67.30;;;;;;10941928;32;20070;-72
2022/03/20 08:14:08;;;;;;;23.87;14.13;;;10.00;68.50;;;;;;10941799;32;20069;-73
2022/03/20 08:20:27;;;;;;;19.05;13.77;;;10.00;67.50;;;;;;10941936;32;20023;-73
2022/03/20 08:26:33;;;;;;;20.48;14.52;;;10.10;66.70;;;;;;10937497;32;20085;-72
2022/03/20 08:32:53;;;;;;;22.17;14.20;;;10.20;65.00;;;;;;10946756;32;20399;-72
2022/03/20 08:38:56;;;;;;;21.35;14.87;;;10.30;63.80;;;;;;10945570;32;20058;-73
2022/03/20 08:44:57;;;;;;;19.12;12.65;;;10.40;64.60;;;;;;10949569;32;20035;-72
2022/03/20 08:51:00;;;;;;;23.80;18.23;;;10.50;65.30;;;;;;10948722;32;20062;-72
2022/03/20 08:57:05;;;;;;;20.90;14.50;;;10.60;62.90;;;;;;10948066;32;20019;-73
2022/03/20 09:03:10;;;;;;;15.82;11.90;;;10.60;62.00;;;;;;10948430;32;20030;-73
2022/03/20 09:09:14;;;;;;;20.27;13.75;;;10.70;61.70;;;;;;10947785;32;20031;-72
2022/03/20 09:15:17;;;;;;;14.57;10.50;;;10.70;60.80;;;;;;10946840;32;20038;-72
2022/03/20 09:21:33;;;;;;;17.35;11.35;;;10.80;61.60;;;;;;10945574;32;20054;-73
2022/03/20 09:27:36;;;;;;;15.68;11.23;;;11.00;59.00;;;;;;10947490;32;20034;-72
2022/03/20 09:33:38;;;;;;;15.65;12.13;;;11.10;57.50;;;;;;10947228;32;20027;-73
2022/03/20 09:39:40;;;;;;;13.57;10.38;;;11.20;56.70;;;;;;10946164;32;20061;-72
2022/03/20 09:45:43;;;;;;;14.02;9.88;;;11.40;56.20;;;;;;10946921;32;20046;-73
2022/03/20 09:51:46;;;;;;;14.50;11.43;;;11.50;55.80;;;;;;10943867;32;20062;-72
2022/03/20 09:57:48;;;;;;;16.77;12.77;;;11.70;55.80;;;;;;10946382;32;20105;-72
2022/03/20 10:04:08;;;;;;;16.75;12.77;;;11.80;54.40;;;;;;10931624;32;20034;-72
2022/03/20 10:10:17;;;;;;;14.32;10.30;;;11.90;53.50;;;;;;10907611;32;20027;-73
2022/03/20 10:16:20;;;;;;;28.77;10.20;;;12.00;52.70;;;;;;10907879;32;20054;-72
2022/03/20 10:22:22;;;;;;;16.65;10.10;;;12.10;52.00;;;;;;10907823;32;20434;-72
2022/03/20 10:28:32;;;;;;;21.37;11.73;;;12.30;54.20;;;;;;10907720;32;20027;-73
2022/03/20 10:34:49;;;;;;;18.02;12.43;;;12.40;53.60;;;;;;10907537;32;20054;-72
2022/03/20 10:40:51;;;;;;;14.93;11.93;;;12.60;51.60;;;;;;10907319;32;20094;-72
2022/03/20 10:46:58;;;;;;;13.27;9.85;;;12.70;51.00;;;;;;10907089;32;20047;-72
2022/03/20 10:53:07;;;;;;;27.62;11.38;;;12.90;50.40;;;;;;10906055;32;20057;-72
2022/03/20 10:59:14;;;;;;;10.60;6.47;;;13.00;49.00;;;;;;10905729;32;20368;-72
2022/03/20 11:05:16;;;;;;;13.30;7.20;;;13.30;49.00;;;;;;10906342;32;20034;-72
2022/03/20 11:11:20;;;;;;;17.50;13.48;;;13.60;49.80;;;;;;10906166;32;20078;-73
2022/03/20 11:17:27;;;;;;;13.48;9.07;;;13.80;49.20;;;;;;10905985;32;20298;-72
2022/03/20 11:23:37;;;;;;;11.12;7.68;;;14.00;45.80;;;;;;10906570;32;20027;-72
2022/03/20 11:29:45;;;;;;;19.30;10.88;;;14.40;48.00;;;;;;10905549;32;20031;-72
2022/03/20 11:35:47;;;;;;;14.75;9.45;;;14.60;44.90;;;;;;10905495;32;20023;-72
2022/03/20 11:42:51;;;;;;;13.02;8.38;;;14.80;47.20;;;;;;10905223;32;20054;-72
2022/03/20 11:49:16;;;;;;;12.27;8.02;;;14.90;48.40;;;;;;10905123;32;20019;-72
2022/03/20 11:55:51;;;;;;;15.18;10.05;;;15.20;44.90;;;;;;10891748;32;20016;-71
2022/03/20 12:02:03;;;;;;;16.45;9.13;;;15.30;46.60;;;;;;10905107;32;20028;-72
2022/03/20 12:08:31;;;;;;;15.48;11.63;;;15.40;46.50;;;;;;10904520;32;20046;-72
2022/03/20 12:14:41;;;;;;;12.23;7.67;;;15.50;45.40;;;;;;10904598;32;20018;-72
2022/03/20 12:21:00;;;;;;;13.70;9.30;;;15.60;43.20;;;;;;10904420;32;20339;-71
2022/03/20 12:27:22;;;;;;;11.40;7.93;;;15.70;41.40;;;;;;10900252;32;20046;-72
2022/03/20 12:33:26;;;;;;;9.48;6.87;;;15.60;41.50;;;;;;10703016;33;20079;-71
2022/03/20 12:39:54;;;;;;;9.07;5.80;;;15.80;40.90;;;;;;10715990;33;20070;-69
2022/03/20 12:45:57;;;;;;;11.98;8.23;;;15.90;40.80;;;;;;10715732;33;20394;-69
2022/03/20 12:51:59;;;;;;;14.07;11.25;;;15.90;38.60;;;;;;10717131;33;20104;-68
2022/03/20 12:58:02;;;;;;;11.73;9.45;;;15.90;41.60;;;;;;10715506;33;20022;-69
2022/03/20 13:04:19;;;;;;;14.02;10.93;;;15.80;40.30;;;;;;10716245;33;20059;-69
2022/03/20 13:10:25;;;;;;;13.27;10.70;;;15.70;40.10;;;;;;10862401;32;20387;-69
2022/03/20 13:16:28;;;;;;;17.58;11.90;;;15.50;42.10;;;;;;10905474;32;20023;-69
2022/03/20 13:22:37;;;;;;;16.30;11.40;;;15.40;43.10;;;;;;10910010;32;20379;-69
2022/03/20 13:28:40;;;;;;;15.98;9.63;;;15.40;43.10;;;;;;10909933;32;20378;-68
2022/03/20 13:34:47;;;;;;;14.40;9.98;;;15.50;40.00;;;;;;10909599;32;20019;-69
2022/03/20 13:41:16;;;;;;;13.73;11.90;;;15.50;40.30;;;;;;10891904;32;20054;-69
2022/03/20 13:47:20;;;;;;;11.98;9.95;;;15.50;42.00;;;;;;10909221;32;20042;-69
2022/03/20 13:53:33;;;;;;;15.15;10.60;;;15.50;42.70;;;;;;10913431;32;20109;-69
2022/03/20 14:00:07;;;;;;;13.07;10.15;;;15.50;41.50;;;;;;10925438;32;20031;-69
2022/03/20 14:06:57;;;;;;;18.73;12.15;;;15.50;42.20;;;;;;10774045;33;20115;-68
2022/03/20 14:13:36;;;;;;;14.38;11.75;;;15.40;42.50;;;;;;10769991;33;20036;-69
2022/03/20 14:19:48;;;;;;;12.63;9.52;;;15.40;42.30;;;;;;10787315;33;20040;-69
2022/03/20 14:25:51;;;;;;;12.88;10.05;;;15.50;39.80;;;;;;10788409;33;20139;-69
2022/03/20 14:45:16;;;;;;;10.57;9.38;;;15.90;43.00;;;;;;10907174;32;20119;-69
2022/03/20 14:51:17;;;;;;;13.45;11.75;;;16.10;39.60;;;;;;10902606;32;20049;-69
2022/03/20 14:57:20;;;;;;;11.48;9.50;;;16.30;41.20;;;;;;10906247;32;20078;-69
2022/03/20 15:03:23;;;;;;;15.70;10.10;;;16.40;39.30;;;;;;10921310;32;20343;-69
2022/03/20 15:15:46;;;;;;;9.65;8.20;;;16.60;41.00;;;;;;10943670;32;20015;-69
2022/03/20 15:21:50;;;;;;;16.30;10.32;;;16.70;38.70;;;;;;10237367;32;21519136;-69
2022/03/20 15:27:52;;;;;;;12.65;8.40;;;16.80;39.60;;;;;;10891858;32;20384;-70
2022/03/20 15:33:54;;;;;;;14.32;7.25;;;17.00;39.40;;;;;;10906231;32;20077;-71
2022/03/20 15:40:35;;;;;;;12.27;9.10;;;17.40;40.60;;;;;;10905955;32;20031;-71
2022/03/20 15:46:40;;;;;;;10.70;7.47;;;17.80;38.50;;;;;;10706759;33;20362;-71
2022/03/20 15:52:43;;;;;;;8.80;6.75;;;18.20;38.00;;;;;;10715373;33;20057;-71
2022/03/20 15:58:45;;;;;;;11.12;8.50;;;18.50;38.10;;;;;;10717256;33;20029;-71
2022/03/20 16:04:47;;;;;;;10.30;7.43;;;18.90;36.70;;;;;;10715590;33;20051;-71
2022/03/20 16:10:50;;;;;;;13.98;8.57;;;19.10;35.80;;;;;;10718607;33;20029;-71
2022/03/20 16:16:52;;;;;;;10.30;8.23;;;18.00;38.20;;;;;;10714688;33;20060;-71
2022/03/20 16:29:42;;;;;;;8.77;6.97;;;16.20;38.70;;;;;;10904671;32;20023;-71
2022/03/20 16:35:44;;;;;;;7.82;6.12;;;15.70;40.30;;;;;;10903851;32;20059;-71
2022/03/20 16:41:49;;;;;;;9.27;6.93;;;15.30;40.70;;;;;;10904410;32;20032;-71
2022/03/20 16:47:51;;;;;;;7.28;5.62;;;15.20;40.40;;;;;;10902396;32;20030;-71
2022/03/20 16:53:53;;;;;;;7.37;5.60;;;15.20;40.60;;;;;;10896063;32;20065;-71
2022/03/20 17:00:16;;;;;;;10.93;6.25;;;15.10;40.70;;;;;;10910615;32;20027;-71
2022/03/20 17:06:18;;;;;;;8.65;5.10;;;15.00;40.90;;;;;;10910952;32;20335;-71
2022/03/20 17:12:20;;;;;;;7.65;5.55;;;14.80;41.30;;;;;;10909900;32;20490;-71
2022/03/20 17:18:22;;;;;;;20.85;7.50;;;14.80;41.50;;;;;;10897002;32;20031;-71
2022/03/20 17:24:24;;;;;;;11.57;6.75;;;14.70;41.90;;;;;;10906148;32;20058;-71
2022/03/20 17:30:26;;;;;;;8.88;6.47;;;14.50;42.30;;;;;;10909979;32;20061;-71
2022/03/20 17:36:28;;;;;;;9.93;6.03;;;14.30;42.80;;;;;;10909318;32;20041;-71
2022/03/20 17:42:34;;;;;;;10.73;8.30;;;14.20;43.60;;;;;;10909365;32;20031;-71
2022/03/20 17:48:36;;;;;;;10.80;6.03;;;14.00;44.40;;;;;;10909070;32;20066;-71
2022/03/20 17:54:40;;;;;;;17.20;8.82;;;13.80;45.60;;;;;;10895489;32;20323;-71
2022/03/20 18:00:42;;;;;;;14.25;9.52;;;13.70;45.90;;;;;;10909093;32;20050;-71
2022/03/20 18:13:08;;;;;;;18.20;13.65;;;13.40;48.70;;;;;;10899733;32;20113;-69
2022/03/20 18:19:10;;;;;;;14.63;9.25;;;13.30;49.20;;;;;;10889528;32;20059;-68
2022/03/20 18:25:15;;;;;;;13.93;8.52;;;13.20;49.90;;;;;;10903682;32;20335;-68
2022/03/20 18:31:17;;;;;;;11.25;8.13;;;13.10;51.10;;;;;;10907444;32;20027;-68
2022/03/20 18:37:20;;;;;;;15.80;11.73;;;12.90;51.70;;;;;;10894131;32;20024;-68
2022/03/20 18:43:23;;;;;;;14.40;9.60;;;12.80;52.80;;;;;;10906045;32;20023;-68
2022/03/20 18:49:27;;;;;;;15.82;9.02;;;12.70;54.10;;;;;;10903446;32;20077;-68
2022/03/20 18:55:29;;;;;;;15.55;9.98;;;12.60;54.00;;;;;;10906680;32;20027;-68
2022/03/20 19:01:34;;;;;;;17.60;11.10;;;12.50;53.90;;;;;;10906562;32;20054;-68
2022/03/20 19:07:40;;;;;;;14.65;10.77;;;12.30;54.60;;;;;;10892345;32;20027;-68
2022/03/20 19:13:45;;;;;;;9.60;6.47;;;12.20;55.20;;;;;;10905473;32;20046;-68
2022/03/20 19:19:48;;;;;;;15.18;11.00;;;12.10;55.70;;;;;;10905814;32;20019;-68
2022/03/20 19:25:50;;;;;;;15.15;10.50;;;12.00;56.10;;;;;;10892346;32;20035;-68
2022/03/20 19:31:52;;;;;;;13.68;10.52;;;12.00;56.60;;;;;;10905459;32;20028;-68
2022/03/20 19:44:16;;;;;;;10.90;7.00;;;12.00;57.50;;;;;;10903139;32;20408;-68
2022/03/20 19:50:18;;;;;;;12.37;8.35;;;11.80;57.80;;;;;;10901376;32;20039;-68
2022/03/20 19:56:21;;;;;;;14.25;10.23;;;11.80;58.50;;;;;;10904756;32;20055;-68
2022/03/20 20:02:24;;;;;;;13.95;8.35;;;11.70;59.10;;;;;;10904544;32;20053;-68
2022/03/20 20:08:27;;;;;;;12.70;8.05;;;11.60;59.50;;;;;;10904481;32;20339;-68
2022/03/20 20:20:49;;;;;;;16.65;10.25;;;11.40;60.70;;;;;;10904250;32;20044;-68
2022/03/20 20:26:51;;;;;;;11.93;9.73;;;11.30;60.80;;;;;;10907026;32;20027;-68
2022/03/20 20:32:54;;;;;;;9.05;6.62;;;11.20;61.90;;;;;;10916481;32;20028;-68
2022/03/20 20:38:58;;;;;;;8.57;5.45;;;11.20;61.80;;;;;;10916217;32;20027;-68
2022/03/20 20:45:01;;;;;;;8.45;5.68;;;11.20;62.10;;;;;;10916243;32;20051;-68
2022/03/20 20:51:10;;;;;;;9.95;5.95;;;11.20;62.20;;;;;;10916080;32;20049;-68
2022/03/20 20:57:12;;;;;;;13.18;8.63;;;11.30;62.40;;;;;;10916079;32;20023;-69
2022/03/20 21:03:14;;;;;;;9.15;5.93;;;11.20;63.10;;;;;;10915928;32;20314;-68
2022/03/20 21:15:38;;;;;;;9.93;6.82;;;10.90;64.60;;;;;;10916569;32;20027;-71
2022/03/20 21:21:43;;;;;;;6.28;4.97;;;10.80;65.00;;;;;;10916554;32;20050;-71
2022/03/20 21:27:58;;;;;;;13.32;5.00;;;10.80;65.80;;;;;;10886999;32;20416;-71
2022/03/20 21:34:00;;;;;;;7.12;3.95;;;10.90;65.90;;;;;;10878963;32;20054;-71
2022/03/20 21:40:33;;;;;;;7.47;4.87;;;10.80;66.20;;;;;;10873203;32;20411;-71
2022/03/20 21:46:56;;;;;;;9.65;5.43;;;10.80;66.10;;;;;;10872790;32;20024;-71
2022/03/20 21:52:59;;;;;;;15.45;7.90;;;10.70;65.70;;;;;;10872154;32;20446;-72
2022/03/20 21:59:45;;;;;;;12.35;7.85;;;10.70;65.70;;;;;;10872073;32;20050;-71
2022/03/20 22:05:47;;;;;;;10.18;5.57;;;10.50;64.20;;;;;;10871051;32;20340;-72
2022/03/20 22:12:08;;;;;;;8.60;5.20;;;10.40;64.40;;;;;;10695829;33;20047;-71
2022/03/20 22:18:10;;;;;;;7.28;4.22;;;10.40;65.70;;;;;;10691745;33;20076;-71
2022/03/20 22:24:13;;;;;;;8.38;5.60;;;10.30;66.40;;;;;;10721381;33;20043;-71
2022/03/20 22:30:15;;;;;;;7.47;5.05;;;10.30;66.40;;;;;;10881719;32;20028;-72
2022/03/20 22:42:40;;;;;;;7.37;4.22;;;10.20;66.50;;;;;;10904298;32;20031;-72
2022/03/20 22:55:05;;;;;;;7.68;4.53;;;10.10;66.20;;;;;;10907639;32;20073;-71
2022/03/20 23:01:08;;;;;;;9.23;4.72;;;10.00;66.50;;;;;;10907250;32;20023;-71
2022/03/20 23:07:10;;;;;;;17.58;9.25;;;10.00;66.90;;;;;;10907118;32;20028;-71
2022/03/20 23:13:12;;;;;;;13.38;6.55;;;10.00;66.90;;;;;;10906811;32;20050;-71
2022/03/20 23:19:16;;;;;;;9.32;5.55;;;10.00;67.10;;;;;;10909862;27;20035;-71
2022/03/20 23:25:21;;;;;;;13.70;5.62;;;10.10;67.50;;;;;;10906552;32;20042;-71
2022/03/20 23:31:26;;;;;;;11.15;6.22;;;10.10;67.40;;;;;;10892891;32;20046;-71
2022/03/20 23:37:30;;;;;;;8.25;4.12;;;10.00;67.60;;;;;;10906316;32;20036;-71
2022/03/20 23:43:34;;;;;;;9.50;4.35;;;10.00;68.10;;;;;;10906396;32;20016;-71
2022/03/20 23:49:36;;;;;;;4.57;2.78;;;10.00;68.60;;;;;;10902095;32;20019;-71
2022/03/20 23:55:48;;;;;;;3.50;2.15;;;9.90;69.20;;;;;;10905792;32;20031;-71
